Eagletown, OK (74734)

3:05 PM CDT on April 18, 2015 (GMT -0500)
HADS | | Change Station
CLOSE
Current Station
Personal Weather Station
Location: Eagletown, OK
Elevation: 648 ft
Nearby Weather Stations

Elev 648 ft 34.14 °N, 94.68 °W | Updated 1 hour ago

Overcast
Overcast
70 °F
Feels Like 70 °F
N
1
Wind Variable Wind from NW
Gusts 0.0 mph

Today
High -- | Low -- °F
--% Chance of Precip.
Yesterday
High -- | Low -- °F
Precip. -- in
6:43 AM 7:51 PM
New Moon, 0% visible
Pressure 29.82 in
Visibility 10.0 miles
Clouds Mostly Cloudy 2000 ft
Mostly Cloudy 2700 ft
Overcast 12000 ft
Dew Point 61 °F
Humidity 72%
Rainfall in
Snow Depth Not available.
UV 3 out of 12
Pollen 3.90 out of 12
Air Quality Not available.
Flu Activity Regional
METAR KDEQ 181953Z AUTO 09007KT 10SM BKN020 BKN027 OVC120 23/18 A2983 RMK AO2 SLP098 T02280178

More Conditions Fewer Conditions

Pressure 29.82 in
Visibility 10.0 miles
Clouds Mostly Cloudy 2000 ft
Mostly Cloudy 2700 ft
Overcast 12000 ft
Dew Point 61 °F
Humidity 72%
Rainfall in
Snow Depth Not available.
UV 3 out of 12
Pollen 3.90 out of 12
Air Quality Not available.
Flu Activity Regional
METAR KDEQ 181953Z AUTO 09007KT 10SM BKN020 BKN027 OVC120 23/18 A2983 RMK AO2 SLP098 T02280178

More Conditions Fewer Conditions

Nowcast | as of 1:46 PM CDT on April 18, 2015

Through 400 PM CDT...look for scattered showers and a few isolated thunderstorms to continue developing and spreading across the four state region. Rainfall amounts with the stronger showers will range from a tenth to one quarter of an inch.

×

10-Day Weather Forecast

Almanac

Astronomy

Apr. 18, 2015 Rise Set
Actual Time
Civil Twilight
Nautical Twilight
Astronomical Twilight
Moon
Length of Visible Light
Length of Day
Tomorrow will be .
, % of the Moon is Illuminated

Today's Extremes

State Highs State Lows

Community

WunderPhotos

Upload Photos

1,814,513 photos uploaded!

WunderBlogs® & News

Nearby

Air Quality

  Air Quality AQ Index Pollutant
Not available.

Snow Depth

Station Depth Elevation

Earthquake Activity

City Distance Mag. Time & Date
Minimum magnitude displayed is 2.5.

Coastal Water Temperatures

Place Temperature

Stations

Nearby Weather Stations

Station Location Temp. Windchill Dew Point Humidity Wind Precip. Elev Updated Type